Terminal Aerodrome Forecast
Issued by NWS Wakefield, VA

Home | Current Version | Previous Version | Text Only | Print | Product List | Glossary On
Versions: 1 2 3 4 5 6 7 8 9 10 11 12 13 14 15
000
FTUS41 KAKQ 230520
TAFORF
TAF
KORF 230520Z 2306/2406 18009KT P6SM BKN030 WS020/20035KT
     FM230800 18009KT P6SM OVC090 WS020/20045KT
     FM231200 18013KT 5SM -SHRA OVC035 WS020/20045KT
     FM231500 19018G27KT 5SM -SHRA OVC020 WS020/20045KT
     FM231800 22017G26KT P6SM BKN020 BKN040
     FM231900 23017G26KT P6SM BKN045
     FM240300 28007KT P6SM SKC=

USA.gov is the U.S. government's official web portal to all federal, state and local government web resources and services.